createdAt,value
2018-10-01T00:00:53.576Z,1010.7
2018-10-01T00:02:02.477Z,1010.67
2018-10-01T00:03:11.650Z,1010.66
2018-10-01T00:04:20.909Z,1010.64
2018-10-01T00:05:30.342Z,1010.64
2018-10-01T00:06:38.995Z,1010.64
2018-10-01T00:07:48.917Z,1010.63
2018-10-01T00:08:58.349Z,1010.67
2018-10-01T00:10:07.765Z,1010.62
2018-10-01T00:11:17.445Z,1010.59
2018-10-01T00:12:27.129Z,1010.6
2018-10-01T00:13:36.023Z,1010.59
2018-10-01T00:14:45.441Z,1010.56
2018-10-01T00:15:54.920Z,1010.55
2018-10-01T00:17:04.360Z,1010.56
2018-10-01T00:18:13.522Z,1010.56
2018-10-01T00:19:22.680Z,1010.54
2018-10-01T00:20:31.837Z,1010.57
2018-10-01T00:21:41.513Z,1010.55
2018-10-01T00:22:50.678Z,1010.6
2018-10-01T00:24:00.098Z,1010.58
2018-10-01T00:25:09.822Z,1010.63
2018-10-01T00:26:19.485Z,1010.61
2018-10-01T00:27:28.893Z,1010.62
2018-10-01T00:28:38.587Z,1010.55
2018-10-01T00:29:48.003Z,1010.6
2018-10-01T00:30:57.418Z,1010.6
2018-10-01T00:32:06.321Z,1010.64
2018-10-01T00:33:16.004Z,1010.59
2018-10-01T00:34:25.176Z,1010.59
2018-10-01T00:35:34.914Z,1010.6
2018-10-01T00:36:44.936Z,1010.63
2018-10-01T00:37:54.667Z,1010.58
2018-10-01T00:39:04.112Z,1010.56
2018-10-01T00:40:13.850Z,1010.54
2018-10-01T00:41:23.830Z,1010.58
2018-10-01T00:42:32.985Z,1010.59
2018-10-01T00:43:42.657Z,1010.61
2018-10-01T00:44:51.562Z,1010.58
2018-10-01T00:46:00.722Z,1010.54
2018-10-01T00:47:10.133Z,1010.55
2018-10-01T00:48:19.289Z,1010.55
2018-10-01T00:49:28.960Z,1010.58
2018-10-01T00:50:38.648Z,1010.53
2018-10-01T00:51:48.322Z,1010.55
2018-10-01T00:52:57.236Z,1010.53
2018-10-01T00:54:06.655Z,1010.55
2018-10-01T00:55:16.065Z,1010.56
2018-10-01T00:56:25.488Z,1010.53
2018-10-01T00:57:34.648Z,1010.53
2018-10-01T00:58:44.601Z,1010.52
2018-10-01T00:59:54.543Z,1010.54
2018-10-01T01:01:03.980Z,1010.52
2018-10-01T01:02:13.152Z,1010.55
2018-10-01T01:03:22.839Z,1010.55
2018-10-01T01:04:32.523Z,1010.54
2018-10-01T01:05:41.676Z,1010.51
2018-10-01T01:06:51.132Z,1010.56
2018-10-01T01:08:00.314Z,1010.54
2018-10-01T01:09:09.466Z,1010.52
2018-10-01T01:10:19.148Z,1010.53
2018-10-01T01:11:28.327Z,1010.45
2018-10-01T01:12:37.492Z,1010.42
2018-10-01T01:13:47.184Z,1010.34
2018-10-01T01:14:56.868Z,1010.32
2018-10-01T01:16:06.301Z,1010.34
2018-10-01T01:17:15.456Z,1010.3
2018-10-01T01:18:25.126Z,1010.34
2018-10-01T01:19:34.793Z,1010.33
2018-10-01T01:20:43.964Z,1010.36
2018-10-01T01:21:53.130Z,1010.45
2018-10-01T01:23:02.289Z,1010.49
2018-10-01T01:24:11.209Z,1010.53
2018-10-01T01:25:20.138Z,1010.54
2018-10-01T01:26:29.804Z,1010.52
2018-10-01T01:27:39.478Z,1010.5
2018-10-01T01:28:49.150Z,1010.51
2018-10-01T01:29:58.053Z,1010.53
2018-10-01T01:31:06.957Z,1010.55
2018-10-01T01:32:16.633Z,1010.55
2018-10-01T01:33:25.791Z,1010.58
2018-10-01T01:34:34.954Z,1010.56
2018-10-01T01:35:43.853Z,1010.55
2018-10-01T01:36:53.525Z,1010.59
2018-10-01T01:38:02.962Z,1010.57
2018-10-01T01:39:12.654Z,1010.53
2018-10-01T01:40:22.131Z,1010.49
2018-10-01T01:41:31.564Z,1010.5
2018-10-01T01:42:40.986Z,1010.49
2018-10-01T01:43:49.913Z,1010.52
2018-10-01T01:44:59.339Z,1010.53
2018-10-01T01:46:08.260Z,1010.54
2018-10-01T01:47:18.396Z,1010.55
2018-10-01T01:48:27.557Z,1010.56
2018-10-01T01:49:36.991Z,1010.58
2018-10-01T01:50:46.696Z,1010.52
2018-10-01T01:51:55.856Z,1010.55
2018-10-01T01:53:05.550Z,1010.55
2018-10-01T01:54:15.242Z,1010.58
2018-10-01T01:55:24.412Z,1010.55
2018-10-01T01:56:33.834Z,1010.54
2018-10-01T01:57:42.739Z,1010.5
2018-10-01T01:58:52.675Z,1010.52
2018-10-01T02:00:01.850Z,1010.51
2018-10-01T02:01:11.280Z,1010.56
2018-10-01T02:02:21.216Z,1010.55
2018-10-01T02:03:30.369Z,1010.48
2018-10-01T02:04:39.524Z,1010.46
2018-10-01T02:05:49.202Z,1010.48
2018-10-01T02:06:58.628Z,1010.47
2018-10-01T02:08:07.797Z,1010.52
2018-10-01T02:09:17.206Z,1010.5
2018-10-01T02:10:26.895Z,1010.48
2018-10-01T02:11:36.317Z,1010.51
2018-10-01T02:12:45.727Z,1010.52
2018-10-01T02:13:54.646Z,1010.52
2018-10-01T02:15:04.578Z,1010.52
2018-10-01T02:16:14.248Z,1010.54
2018-10-01T02:17:23.408Z,1010.56
2018-10-01T02:18:32.590Z,1010.55
2018-10-01T02:19:41.753Z,1010.58
2018-10-01T02:20:51.184Z,1010.6
2018-10-01T02:22:00.342Z,1010.63
2018-10-01T02:23:09.678Z,1010.62
2018-10-01T02:24:19.095Z,1010.61
2018-10-01T02:25:28.528Z,1010.61
2018-10-01T02:26:37.688Z,1010.58
2018-10-01T02:27:47.115Z,1010.62
2018-10-01T02:28:56.783Z,1010.63
2018-10-01T02:30:06.461Z,1010.6
2018-10-01T02:31:16.404Z,1010.63
2018-10-01T02:32:25.590Z,1010.64
2018-10-01T02:33:34.993Z,1010.64
2018-10-01T02:34:44.155Z,1010.62
2018-10-01T02:35:53.566Z,1010.65
2018-10-01T02:37:03.255Z,1010.66
2018-10-01T02:38:12.676Z,1010.63
2018-10-01T02:39:21.587Z,1010.65
2018-10-01T02:40:30.757Z,1010.63
2018-10-01T02:41:40.456Z,1010.69
2018-10-01T02:42:50.374Z,1010.69
2018-10-01T02:43:59.544Z,1010.65
2018-10-01T02:45:09.233Z,1010.67
2018-10-01T02:46:18.950Z,1010.66
2018-10-01T02:47:28.391Z,1010.67
2018-10-01T02:48:38.244Z,1010.66
2018-10-01T02:49:47.673Z,1010.67
2018-10-01T02:50:57.593Z,1010.63
2018-10-01T02:52:07.277Z,1010.61
2018-10-01T02:53:17.224Z,1010.64
2018-10-01T02:54:27.167Z,1010.63
2018-10-01T02:55:36.333Z,1010.62
2018-10-01T02:56:46.039Z,1010.63
2018-10-01T02:57:55.488Z,1010.61
2018-10-01T02:59:04.655Z,1010.64
2018-10-01T03:00:14.345Z,1010.66
2018-10-01T03:01:22.984Z,1010.67
2018-10-01T03:02:32.421Z,1010.67
2018-10-01T03:03:42.088Z,1010.69
2018-10-01T03:04:51.003Z,1010.69
2018-10-01T03:05:59.911Z,1010.66
2018-10-01T03:07:09.333Z,1010.71
2018-10-01T03:08:19.017Z,1010.69
2018-10-01T03:09:28.953Z,1010.66
2018-10-01T03:10:38.436Z,1010.67
2018-10-01T03:11:48.359Z,1010.65
2018-10-01T03:12:57.768Z,1010.6
2018-10-01T03:14:07.445Z,1010.62
2018-10-01T03:15:16.884Z,1010.58
2018-10-01T03:16:26.576Z,1010.6
2018-10-01T03:17:36.280Z,1010.64
2018-10-01T03:18:45.968Z,1010.62
2018-10-01T03:19:55.905Z,1010.65
2018-10-01T03:21:05.378Z,1010.61
2018-10-01T03:22:14.929Z,1010.63
2018-10-01T03:23:24.602Z,1010.62
2018-10-01T03:24:34.281Z,1010.63
2018-10-01T03:25:44.028Z,1010.68
2018-10-01T03:26:53.203Z,1010.67
2018-10-01T03:28:02.645Z,1010.65
2018-10-01T03:29:12.350Z,1010.63
2018-10-01T03:30:21.277Z,1010.69
2018-10-01T03:31:30.699Z,1010.64
2018-10-01T03:32:40.423Z,1010.68
2018-10-01T03:33:49.586Z,1010.65
2018-10-01T03:34:59.314Z,1010.67
2018-10-01T03:36:08.982Z,1010.65
2018-10-01T03:37:18.657Z,1010.7
2018-10-01T03:38:28.327Z,1010.73
2018-10-01T03:39:38.010Z,1010.68
2018-10-01T03:40:47.947Z,1010.7
2018-10-01T03:41:57.889Z,1010.68
2018-10-01T03:43:07.331Z,1010.71
2018-10-01T03:44:17.017Z,1010.71
2018-10-01T03:45:26.446Z,1010.7
2018-10-01T03:46:36.382Z,1010.74
2018-10-01T03:47:45.790Z,1010.7
2018-10-01T03:48:55.242Z,1010.73
2018-10-01T03:50:04.924Z,1010.7
2018-10-01T03:51:14.355Z,1010.69
2018-10-01T03:52:23.783Z,1010.66
2018-10-01T03:53:33.464Z,1010.61
2018-10-01T03:54:42.638Z,1010.63
2018-10-01T03:55:51.826Z,1010.64
2018-10-01T03:57:02.201Z,1010.59
2018-10-01T03:58:11.868Z,1010.63
2018-10-01T03:59:20.775Z,1010.61
2018-10-01T04:00:30.489Z,1010.61
2018-10-01T04:01:40.162Z,1010.63
2018-10-01T04:02:49.867Z,1010.65
2018-10-01T04:03:59.535Z,1010.62
2018-10-01T04:05:08.430Z,1010.64
2018-10-01T04:06:17.858Z,1010.64
2018-10-01T04:07:27.272Z,1010.63
2018-10-01T04:08:36.444Z,1010.66
2018-10-01T04:09:46.075Z,1010.68
2018-10-01T04:10:55.756Z,1010.71
2018-10-01T04:12:05.441Z,1010.69
2018-10-01T04:13:15.113Z,1010.68
2018-10-01T04:14:24.540Z,1010.73
2018-10-01T04:15:34.264Z,1010.74
2018-10-01T04:16:43.700Z,1010.76
2018-10-01T04:17:53.652Z,1010.78
2018-10-01T04:19:03.591Z,1010.78
2018-10-01T04:20:13.274Z,1010.79
2018-10-01T04:21:22.680Z,1010.82
2018-10-01T04:22:32.399Z,1010.82
2018-10-01T04:23:42.778Z,1010.81
2018-10-01T04:24:52.478Z,1010.8
2018-10-01T04:26:01.876Z,1010.79
2018-10-01T04:27:11.039Z,1010.78
2018-10-01T04:28:20.618Z,1010.81
2018-10-01T04:29:30.111Z,1010.84
2018-10-01T04:30:40.050Z,1010.82
2018-10-01T04:31:49.215Z,1010.86
2018-10-01T04:32:58.642Z,1010.89
2018-10-01T04:34:59.375Z,1010.88
2018-10-01T04:36:08.790Z,1010.9
2018-10-01T04:37:18.212Z,1010.96
2018-10-01T04:38:27.901Z,1010.94
2018-10-01T04:39:37.329Z,1010.94
2018-10-01T04:40:46.802Z,1010.93
2018-10-01T04:41:56.690Z,1010.94
2018-10-01T04:43:05.590Z,1010.93
2018-10-01T04:44:14.743Z,1010.93
2018-10-01T04:45:23.904Z,1010.96
2018-10-01T04:46:33.649Z,1010.92
2018-10-01T04:47:43.130Z,1010.98
2018-10-01T04:48:52.829Z,1011.02
2018-10-01T04:50:02.045Z,1010.99
2018-10-01T04:51:11.484Z,1011.01
2018-10-01T04:52:20.653Z,1011.04
2018-10-01T04:53:30.070Z,1011.02
2018-10-01T04:54:39.525Z,1011.02
2018-10-01T04:55:48.706Z,1011.04
2018-10-01T04:56:57.869Z,1011.08
2018-10-01T04:58:07.906Z,1011.13
2018-10-01T04:59:18.028Z,1011.16
2018-10-01T05:00:26.933Z,1011.17
2018-10-01T05:01:36.347Z,1011.18
2018-10-01T05:02:45.509Z,1011.16
2018-10-01T05:03:54.935Z,1011.21
2018-10-01T05:05:04.102Z,1011.24
2018-10-01T05:06:13.835Z,1011.27
2018-10-01T05:07:23.998Z,1011.28
2018-10-01T05:08:33.438Z,1011.28
2018-10-01T05:09:43.410Z,1011.31
2018-10-01T05:10:52.079Z,1011.32
2018-10-01T05:12:01.237Z,1011.34
2018-10-01T05:13:10.944Z,1011.34
2018-10-01T05:14:20.357Z,1011.34
2018-10-01T05:15:30.035Z,1011.37
2018-10-01T05:16:39.713Z,1011.4
2018-10-01T05:17:49.132Z,1011.41
2018-10-01T05:18:58.557Z,1011.45
2018-10-01T05:20:08.241Z,1011.42
2018-10-01T05:21:17.415Z,1011.48
2018-10-01T05:22:26.579Z,1011.46
2018-10-01T05:23:35.761Z,1011.48
2018-10-01T05:24:45.167Z,1011.46
2018-10-01T05:25:54.597Z,1011.46
2018-10-01T05:27:03.572Z,1011.49
2018-10-01T05:28:13.640Z,1011.54
2018-10-01T05:29:23.547Z,1011.48
2018-10-01T05:30:32.197Z,1011.53
2018-10-01T05:31:41.632Z,1011.54
2018-10-01T05:32:50.805Z,1011.54
2018-10-01T05:33:59.966Z,1011.51
2018-10-01T05:35:09.122Z,1011.51
2018-10-01T05:36:18.528Z,1011.54
2018-10-01T05:37:27.682Z,1011.54
2018-10-01T05:38:36.590Z,1011.53
2018-10-01T05:39:45.229Z,1011.56
2018-10-01T05:40:54.392Z,1011.58
2018-10-01T05:42:04.078Z,1011.57
2018-10-01T05:43:13.514Z,1011.64
2018-10-01T05:44:22.945Z,1011.61
2018-10-01T05:45:32.101Z,1011.62
2018-10-01T05:46:41.540Z,1011.65
2018-10-01T05:47:50.712Z,1011.67
2018-10-01T05:49:00.147Z,1011.66
2018-10-01T05:50:10.040Z,1011.69
2018-10-01T05:51:19.463Z,1011.72
2018-10-01T05:52:28.920Z,1011.71
2018-10-01T05:53:38.554Z,1011.67
2018-10-01T05:54:48.000Z,1011.71
2018-10-01T05:55:57.800Z,1011.71
2018-10-01T05:57:07.478Z,1011.76
2018-10-01T05:58:16.809Z,1011.77
2018-10-01T05:59:26.278Z,1011.81
2018-10-01T06:00:35.453Z,1011.85
2018-10-01T06:01:45.139Z,1011.82
2018-10-01T06:02:54.817Z,1011.82
2018-10-01T06:04:03.969Z,1011.86
2018-10-01T06:05:12.934Z,1011.88
2018-10-01T06:06:22.624Z,1011.91
2018-10-01T06:07:32.040Z,1011.93
2018-10-01T06:08:41.465Z,1011.94
2018-10-01T06:09:51.322Z,1011.92
2018-10-01T06:11:01.003Z,1011.93
2018-10-01T06:12:10.702Z,1011.92
2018-10-01T06:13:20.111Z,1011.87
2018-10-01T06:14:29.802Z,1011.86
2018-10-01T06:15:39.495Z,1011.86
2018-10-01T06:16:48.688Z,1011.88
2018-10-01T06:17:58.624Z,1011.85
2018-10-01T06:19:07.523Z,1011.92
2018-10-01T06:20:16.439Z,1011.9
2018-10-01T06:21:26.115Z,1011.9
2018-10-01T06:22:35.292Z,1011.9
2018-10-01T06:23:44.703Z,1011.93
2018-10-01T06:24:53.328Z,1011.94
2018-10-01T06:26:02.795Z,1011.95
2018-10-01T06:27:12.203Z,1011.97
2018-10-01T06:28:21.372Z,1012
2018-10-01T06:29:30.278Z,1012.02
2018-10-01T06:30:39.756Z,1012.03
2018-10-01T06:31:49.622Z,1012.06
2018-10-01T06:32:58.784Z,1012.06
2018-10-01T06:34:08.242Z,1012.06
2018-10-01T06:35:18.176Z,1012.06
2018-10-01T06:36:27.334Z,1012.1
2018-10-01T06:37:37.279Z,1012.07
2018-10-01T06:38:46.220Z,1012.09
2018-10-01T06:39:55.631Z,1012.1
2018-10-01T06:41:05.331Z,1012.11
2018-10-01T06:42:15.335Z,1012.08
2018-10-01T06:43:25.277Z,1012.09
2018-10-01T06:44:34.977Z,1012.11
2018-10-01T06:45:44.672Z,1012.12
2018-10-01T06:46:54.612Z,1012.12
2018-10-01T06:48:04.549Z,1012.14
2018-10-01T06:49:14.272Z,1012.11
2018-10-01T06:50:23.702Z,1012.13
2018-10-01T06:51:33.385Z,1012.12
2018-10-01T06:52:42.295Z,1012.15
2018-10-01T06:53:51.466Z,1012.16
2018-10-01T06:55:00.885Z,1012.13
2018-10-01T06:56:10.063Z,1012.14
2018-10-01T06:57:19.234Z,1012.17
2018-10-01T06:58:29.180Z,1012.17
2018-10-01T06:59:38.616Z,1012.22
2018-10-01T07:00:48.289Z,1012.26
2018-10-01T07:01:57.720Z,1012.34
2018-10-01T07:03:06.623Z,1012.34
2018-10-01T07:04:16.089Z,1012.37
2018-10-01T07:05:25.795Z,1012.39
2018-10-01T07:06:36.268Z,1012.4
2018-10-01T07:07:45.204Z,1012.43
2018-10-01T07:08:54.398Z,1012.42
2018-10-01T07:10:04.386Z,1012.44
2018-10-01T07:11:13.830Z,1012.44
2018-10-01T07:12:23.672Z,1012.46
2018-10-01T07:13:32.844Z,1012.47
2018-10-01T07:14:42.037Z,1012.46
2018-10-01T07:15:51.205Z,1012.48
2018-10-01T07:17:00.464Z,1012.5
2018-10-01T07:18:10.778Z,1012.52
2018-10-01T07:19:20.217Z,1012.59
2018-10-01T07:20:29.917Z,1012.57
2018-10-01T07:21:39.081Z,1012.57
2018-10-01T07:22:48.549Z,1012.6
2018-10-01T07:23:58.679Z,1012.64
2018-10-01T07:25:08.117Z,1012.65
2018-10-01T07:26:17.546Z,1012.67
2018-10-01T07:27:27.218Z,1012.69
2018-10-01T07:28:36.913Z,1012.74
2018-10-01T07:29:46.313Z,1012.72
2018-10-01T07:30:55.733Z,1012.69
2018-10-01T07:32:05.247Z,1012.69
2018-10-01T07:33:14.412Z,1012.75
2018-10-01T07:34:23.841Z,1012.73
2018-10-01T07:35:33.024Z,1012.77
2018-10-01T07:36:41.924Z,1012.73
2018-10-01T07:37:51.854Z,1012.76
2018-10-01T07:39:01.354Z,1012.73
2018-10-01T07:40:10.930Z,1012.79
2018-10-01T07:41:20.876Z,1012.82
2018-10-01T07:42:30.304Z,1012.82
2018-10-01T07:43:40.028Z,1012.88
2018-10-01T07:44:49.730Z,1012.91
2018-10-01T07:45:59.522Z,1012.89
2018-10-01T07:47:09.868Z,1012.95
2018-10-01T07:48:19.616Z,1012.94
2018-10-01T07:49:29.593Z,1012.96
2018-10-01T07:50:38.832Z,1012.91
2018-10-01T07:51:48.864Z,1013.01
2018-10-01T07:52:58.291Z,1013.02
2018-10-01T07:54:07.724Z,1013.03
2018-10-01T07:55:17.429Z,1013.01
2018-10-01T07:56:26.592Z,1013.05
2018-10-01T07:57:36.098Z,1013.04
2018-10-01T07:58:45.301Z,1013.08
2018-10-01T07:59:55.192Z,1013.07
2018-10-01T08:01:05.968Z,1013.07
2018-10-01T08:02:15.727Z,1013.1
2018-10-01T08:03:25.676Z,1013.09
2018-10-01T08:04:35.601Z,1013.05
2018-10-01T08:05:45.070Z,1013.08
2018-10-01T08:06:54.492Z,1013.07
2018-10-01T08:08:04.492Z,1013.04
2018-10-01T08:09:14.540Z,1013.06
2018-10-01T08:10:23.787Z,1013.06
2018-10-01T08:11:33.205Z,1013.08
2018-10-01T08:12:42.888Z,1013.05
2018-10-01T08:13:52.050Z,1013.11
2018-10-01T08:15:01.903Z,1013.12
2018-10-01T08:16:11.329Z,1013.13
2018-10-01T08:17:21.021Z,1013.16
2018-10-01T08:18:30.944Z,1013.22
2018-10-01T08:19:40.369Z,1013.27
2018-10-01T08:20:49.266Z,1013.29
2018-10-01T08:21:58.948Z,1013.28
2018-10-01T08:23:08.364Z,1013.26
2018-10-01T08:24:17.785Z,1013.35
2018-10-01T08:25:26.954Z,1013.36
2018-10-01T08:26:36.464Z,1013.37
2018-10-01T08:27:46.342Z,1013.36
2018-10-01T08:28:55.776Z,1013.33
2018-10-01T08:30:05.798Z,1013.39
2018-10-01T08:31:15.015Z,1013.37
2018-10-01T08:32:24.707Z,1013.35
2018-10-01T08:33:34.679Z,1013.36
2018-10-01T08:34:43.844Z,1013.34
2018-10-01T08:35:53.266Z,1013.34
2018-10-01T08:37:03.199Z,1013.34
2018-10-01T08:38:13.011Z,1013.35
2018-10-01T08:39:23.019Z,1013.37
2018-10-01T08:40:32.731Z,1013.37
2018-10-01T08:41:42.155Z,1013.41
2018-10-01T08:42:51.583Z,1013.43
2018-10-01T08:44:00.805Z,1013.47
2018-10-01T08:45:10.361Z,1013.41
2018-10-01T08:46:19.790Z,1013.44
2018-10-01T08:47:29.283Z,1013.42
2018-10-01T08:48:39.258Z,1013.42
2018-10-01T08:49:48.149Z,1013.49
2018-10-01T08:50:57.631Z,1013.5
2018-10-01T08:52:07.643Z,1013.52
2018-10-01T08:53:17.237Z,1013.49
2018-10-01T08:54:27.544Z,1013.52
2018-10-01T08:55:37.010Z,1013.55
2018-10-01T08:56:45.907Z,1013.59
2018-10-01T08:57:55.071Z,1013.61
2018-10-01T08:59:04.551Z,1013.62
2018-10-01T09:00:14.573Z,1013.65
2018-10-01T09:01:23.746Z,1013.68
2018-10-01T09:02:33.206Z,1013.66
2018-10-01T09:03:42.845Z,1013.67
2018-10-01T09:04:52.262Z,1013.62
2018-10-01T09:06:01.798Z,1013.59
2018-10-01T09:07:10.733Z,1013.65
2018-10-01T09:08:20.455Z,1013.66
2018-10-01T09:09:30.372Z,1013.66
2018-10-01T09:10:39.810Z,1013.68
2018-10-01T09:11:49.245Z,1013.66
2018-10-01T09:12:58.662Z,1013.71
2018-10-01T09:14:08.425Z,1013.75
2018-10-01T09:15:18.123Z,1013.74
2018-10-01T09:16:27.305Z,1013.75
2018-10-01T09:17:36.835Z,1013.72
2018-10-01T09:18:46.012Z,1013.76
2018-10-01T09:19:56.000Z,1013.72
2018-10-01T09:21:05.867Z,1013.72
2018-10-01T09:22:15.468Z,1013.8
2018-10-01T09:23:24.678Z,1013.78
2018-10-01T09:24:34.913Z,1013.77
2018-10-01T09:25:44.857Z,1013.78
2018-10-01T09:26:53.795Z,1013.82
2018-10-01T09:28:03.506Z,1013.8
2018-10-01T09:29:12.995Z,1013.81
2018-10-01T09:30:23.010Z,1013.86
2018-10-01T09:31:32.687Z,1013.83
2018-10-01T09:32:42.114Z,1013.89
2018-10-01T09:33:52.060Z,1013.9
2018-10-01T09:35:02.044Z,1013.91
2018-10-01T09:36:11.672Z,1013.93
2018-10-01T09:37:20.853Z,1013.98
2018-10-01T09:38:30.332Z,1013.97
2018-10-01T09:39:40.504Z,1013.96
2018-10-01T09:40:50.200Z,1014.02
2018-10-01T09:42:00.367Z,1013.97
2018-10-01T09:43:10.259Z,1013.99
2018-10-01T09:44:19.433Z,1013.99
2018-10-01T09:45:29.146Z,1013.96
2018-10-01T09:46:38.395Z,1013.98
2018-10-01T09:47:48.154Z,1013.97
2018-10-01T09:48:57.826Z,1013.95
2018-10-01T09:50:06.765Z,1013.91
2018-10-01T09:51:16.052Z,1013.93
2018-10-01T09:52:25.570Z,1013.94
2018-10-01T09:53:35.287Z,1013.96
2018-10-01T09:54:45.068Z,1014
2018-10-01T09:55:54.832Z,1013.95
2018-10-01T09:57:04.711Z,1013.96
2018-10-01T09:58:14.283Z,1013.96
2018-10-01T09:59:24.168Z,1013.95
2018-10-01T10:00:34.101Z,1013.93
2018-10-01T10:01:43.544Z,1013.96
2018-10-01T10:02:53.319Z,1013.94
2018-10-01T10:04:02.307Z,1013.9
2018-10-01T10:05:12.678Z,1013.9
2018-10-01T10:06:22.373Z,1013.88
2018-10-01T10:07:31.541Z,1013.92
2018-10-01T10:08:41.353Z,1013.88
2018-10-01T10:09:50.813Z,1013.86
2018-10-01T10:11:00.909Z,1013.85
2018-10-01T10:12:10.329Z,1013.84
2018-10-01T10:13:19.749Z,1013.82
2018-10-01T10:14:29.184Z,1013.82
2018-10-01T10:15:39.147Z,1013.78
2018-10-01T10:16:48.927Z,1013.79
2018-10-01T10:17:58.966Z,1013.83
2018-10-01T10:19:08.672Z,1013.89
2018-10-01T10:20:18.372Z,1013.92
2018-10-01T10:21:28.539Z,1013.9
2018-10-01T10:22:38.085Z,1013.79
2018-10-01T10:23:47.590Z,1013.77
2018-10-01T10:24:56.985Z,1013.84
2018-10-01T10:26:06.250Z,1013.86
2018-10-01T10:27:15.960Z,1013.86
2018-10-01T10:28:25.737Z,1013.93
2018-10-01T10:29:35.738Z,1013.96
2018-10-01T10:30:45.152Z,1013.95
2018-10-01T10:31:54.326Z,1013.9
2018-10-01T10:33:03.879Z,1013.91
2018-10-01T10:34:13.392Z,1013.92
2018-10-01T10:35:23.626Z,1013.94
2018-10-01T10:36:34.055Z,1013.94
2018-10-01T10:37:43.760Z,1013.99
2018-10-01T10:38:53.179Z,1014
2018-10-01T10:40:02.602Z,1013.99
2018-10-01T10:41:12.165Z,1014
2018-10-01T10:42:21.592Z,1013.94
2018-10-01T10:43:31.016Z,1013.97
2018-10-01T10:44:39.955Z,1013.99
2018-10-01T10:45:49.857Z,1013.92
2018-10-01T10:46:59.037Z,1013.97
2018-10-01T10:48:07.952Z,1013.97
2018-10-01T10:49:18.028Z,1014
2018-10-01T10:50:27.261Z,1013.95
2018-10-01T10:51:37.557Z,1013.94
2018-10-01T10:52:46.984Z,1013.94
2018-10-01T10:53:56.825Z,1013.96
2018-10-01T10:55:06.509Z,1013.95
2018-10-01T10:56:16.072Z,1013.88
2018-10-01T10:57:25.900Z,1013.9
2018-10-01T10:58:35.597Z,1013.87
2018-10-01T10:59:45.021Z,1013.88
2018-10-01T11:00:54.190Z,1013.87
2018-10-01T11:02:03.903Z,1013.91
2018-10-01T11:03:13.899Z,1013.92
2018-10-01T11:04:23.059Z,1013.97
2018-10-01T11:05:32.727Z,1013.87
2018-10-01T11:06:41.908Z,1013.92
2018-10-01T11:07:51.339Z,1013.95
2018-10-01T11:09:00.817Z,1014.01
2018-10-01T11:10:10.499Z,1013.98
2018-10-01T11:11:19.401Z,1013.93
2018-10-01T11:12:28.827Z,1013.93
2018-10-01T11:13:38.504Z,1013.96
2018-10-01T11:14:48.221Z,1013.95
2018-10-01T11:15:58.565Z,1013.92
2018-10-01T11:17:08.004Z,1013.99
2018-10-01T11:18:17.993Z,1013.94
2018-10-01T11:19:28.437Z,1013.89
2018-10-01T11:20:38.391Z,1013.83
2018-10-01T11:21:48.029Z,1013.86
2018-10-01T11:22:58.237Z,1013.83
2018-10-01T11:24:07.959Z,1013.91
2018-10-01T11:25:17.405Z,1013.92
2018-10-01T11:26:27.934Z,1013.95
2018-10-01T11:27:37.134Z,1013.91
2018-10-01T11:28:47.409Z,1013.87
2018-10-01T11:29:57.117Z,1013.91
2018-10-01T11:31:06.286Z,1013.88
2018-10-01T11:32:15.501Z,1013.79
2018-10-01T11:33:25.242Z,1013.8
2018-10-01T11:34:35.712Z,1013.9
2018-10-01T11:35:46.186Z,1013.95
2018-10-01T11:36:55.888Z,1013.94
2018-10-01T11:38:05.068Z,1013.98
2018-10-01T11:39:14.649Z,1014.02
2018-10-01T11:40:24.634Z,1013.93
2018-10-01T11:41:34.329Z,1013.94
2018-10-01T11:42:43.511Z,1013.95
2018-10-01T11:43:52.967Z,1013.92
2018-10-01T11:45:01.952Z,1013.91
2018-10-01T11:46:11.583Z,1013.98
2018-10-01T11:47:20.701Z,1013.99
2018-10-01T11:48:30.381Z,1014.06
2018-10-01T11:49:39.025Z,1014.04
2018-10-01T11:50:48.248Z,1014.06
2018-10-01T11:51:58.106Z,1014.12
2018-10-01T11:53:07.534Z,1014.1
2018-10-01T11:54:16.783Z,1014.22
2018-10-01T11:55:27.386Z,1014.2
2018-10-01T11:56:36.556Z,1014.16
2018-10-01T11:57:46.047Z,1014.15
2018-10-01T11:58:55.524Z,1014.24
2018-10-01T12:00:05.191Z,1014.28
2018-10-01T12:01:14.631Z,1014.32
2018-10-01T12:02:24.056Z,1014.57
2018-10-01T12:03:33.571Z,1014.68
2018-10-01T12:04:43.920Z,1014.68
2018-10-01T12:05:52.555Z,1014.76
2018-10-01T12:07:02.234Z,1014.78
2018-10-01T12:08:11.960Z,1014.81
2018-10-01T12:09:21.406Z,1014.93
2018-10-01T12:10:31.731Z,1014.98
2018-10-01T12:11:41.801Z,1014.87
2018-10-01T12:12:51.276Z,1014.94
2018-10-01T12:14:00.436Z,1014.88
2018-10-01T12:15:09.862Z,1014.86
2018-10-01T12:16:19.431Z,1014.98
2018-10-01T12:17:28.863Z,1015.03
2018-10-01T12:18:38.272Z,1015.02
2018-10-01T12:19:47.442Z,1014.98
2018-10-01T12:20:56.638Z,1014.99
2018-10-01T12:22:06.642Z,1014.93
2018-10-01T12:23:17.287Z,1014.92
2018-10-01T12:24:27.325Z,1014.97
2018-10-01T12:25:36.493Z,1014.92
2018-10-01T12:26:45.909Z,1014.96
2018-10-01T12:27:55.363Z,1015.01
2018-10-01T12:29:04.316Z,1014.93
2018-10-01T12:30:14.324Z,1014.96
2018-10-01T12:31:24.010Z,1014.94
2018-10-01T12:32:33.427Z,1014.94
2018-10-01T12:33:42.994Z,1014.94
2018-10-01T12:34:52.774Z,1014.94
2018-10-01T12:36:02.727Z,1014.97
2018-10-01T12:37:12.142Z,1014.95
2018-10-01T12:38:21.051Z,1014.99
2018-10-01T12:39:30.268Z,1014.97
2018-10-01T12:40:39.481Z,1014.96
2018-10-01T12:41:48.136Z,1014.96
2018-10-01T12:42:57.855Z,1014.93
2018-10-01T12:44:07.205Z,1014.96
2018-10-01T12:45:16.740Z,1014.96
2018-10-01T12:46:26.509Z,1014.91
2018-10-01T12:47:35.962Z,1014.88
2018-10-01T12:48:45.125Z,1014.89
2018-10-01T12:49:54.540Z,1014.87
2018-10-01T12:51:03.991Z,1014.79
2018-10-01T12:52:14.094Z,1014.86
2018-10-01T12:53:23.584Z,1014.91
2018-10-01T12:54:33.264Z,1014.88
2018-10-01T12:55:42.691Z,1014.89
2018-10-01T12:56:52.368Z,1014.91
2018-10-01T12:58:02.235Z,1014.97
2018-10-01T12:59:11.401Z,1014.97
2018-10-01T13:00:20.857Z,1015.04
2018-10-01T13:01:30.280Z,1015.09
2018-10-01T13:02:39.808Z,1015.02
2018-10-01T13:03:49.240Z,1015.07
2018-10-01T13:04:59.087Z,1015.01
2018-10-01T13:06:09.185Z,1015.01
2018-10-01T13:09:00.621Z,1015.03
2018-10-01T13:10:10.930Z,1014.99
2018-10-01T13:11:20.668Z,1014.98
2018-10-01T13:12:29.866Z,1015.01
2018-10-01T13:13:39.556Z,1015
2018-10-01T13:14:48.468Z,1015.05
2018-10-01T13:15:57.641Z,1015.1
2018-10-01T13:17:07.641Z,1015.01
2018-10-01T13:18:17.216Z,1015.1
2018-10-01T13:19:27.468Z,1015.17
2018-10-01T13:20:36.703Z,1015.14
2018-10-01T13:21:45.968Z,1015.26
2018-10-01T13:22:55.169Z,1015.24
2018-10-01T13:24:04.721Z,1015.23
2018-10-01T13:25:16.011Z,1015.2
2018-10-01T13:26:25.513Z,1015.26
2018-10-01T13:27:34.819Z,1015.19
2018-10-01T13:28:44.932Z,1015.21
2018-10-01T13:29:54.297Z,1015.22
2018-10-01T13:31:04.660Z,1015.23
2018-10-01T13:32:13.578Z,1015.24
2018-10-01T13:33:23.112Z,1015.27
2018-10-01T13:34:32.292Z,1015.3
2018-10-01T13:35:41.242Z,1015.31
2018-10-01T13:36:50.937Z,1015.28
2018-10-01T13:37:59.858Z,1015.31
2018-10-01T13:39:09.497Z,1015.26
2018-10-01T13:40:19.186Z,1015.26
2018-10-01T13:41:28.894Z,1015.23
2018-10-01T13:42:39.052Z,1015.16
2018-10-01T13:43:49.311Z,1015.16
2018-10-01T13:44:58.872Z,1015.19
2018-10-01T13:46:09.002Z,1015.18
2018-10-01T13:47:18.838Z,1015.15
2018-10-01T13:48:27.780Z,1015.15
2018-10-01T13:49:38.431Z,1015.16
2018-10-01T13:50:47.873Z,1015.2
2018-10-01T13:51:57.045Z,1015.15
2018-10-01T13:53:07.506Z,1015.19
2018-10-01T13:54:17.625Z,1015.11
2018-10-01T13:55:27.353Z,1015.13
2018-10-01T13:56:37.005Z,1015.11
2018-10-01T13:57:47.048Z,1015.06
2018-10-01T13:58:57.011Z,1015.12
2018-10-01T14:00:07.548Z,1015.09
2018-10-01T14:01:17.656Z,1015.05
2018-10-01T14:02:27.280Z,1015.1
2018-10-01T14:03:37.822Z,1015.1
2018-10-01T14:04:46.470Z,1015.12
2018-10-01T14:05:56.558Z,1015.12